Time;durP1;ratioP1;P1;durP2;ratioP2;P2;SDS_P1;SDS_P2;PMS_P1;PMS_P2;Temp;Humidity;BMP_temperature;BMP_pressure;BME280_temperature;BME280_humidity;BME280_pressure;Samples;Min_cycle;Max_cycle;Signal;HPM_P1;HPM_P2
2023/07/15 00:01:36;;;;;;;3.10;2.80;;;20.10;99.90;;;;;;5017639;28;20403;-84
2023/07/15 00:04:02;;;;;;;3.70;3.10;;;20.00;99.90;;;;;;5017350;28;20751;-83
2023/07/15 00:06:28;;;;;;;3.75;3.10;;;20.00;99.90;;;;;;5018214;28;20380;-84
2023/07/15 00:08:54;;;;;;;3.10;2.80;;;19.90;99.90;;;;;;5018009;28;20937;-83
2023/07/15 00:11:33;;;;;;;4.20;3.00;;;20.00;99.90;;;;;;5018454;28;20495;-84
2023/07/15 00:14:00;;;;;;;3.35;3.05;;;19.90;99.90;;;;;;5018539;28;20751;-84
2023/07/15 00:16:27;;;;;;;3.30;3.00;;;20.00;99.90;;;;;;5018047;28;21077;-83
2023/07/15 00:18:52;;;;;;;3.55;3.25;;;19.90;99.90;;;;;;5017208;28;20413;-84
2023/07/15 00:21:22;;;;;;;3.10;2.80;;;19.90;99.90;;;;;;5022852;28;20385;-84
2023/07/15 00:23:55;;;;;;;3.50;3.20;;;19.90;99.90;;;;;;5023500;28;20393;-84
2023/07/15 00:26:22;;;;;;;3.60;3.03;;;19.90;99.90;;;;;;5017312;28;20460;-84
2023/07/15 00:28:49;;;;;;;3.10;2.85;;;19.90;99.90;;;;;;5017987;28;20408;-84
2023/07/15 00:31:17;;;;;;;3.33;2.95;;;19.90;99.90;;;;;;5018864;28;20389;-84
2023/07/15 00:33:43;;;;;;;2.60;2.40;;;19.90;99.90;;;;;;5018171;28;20399;-84
2023/07/15 00:36:10;;;;;;;3.00;2.70;;;20.00;99.90;;;;;;5016715;28;20405;-85
2023/07/15 00:38:36;;;;;;;3.60;2.97;;;19.90;99.90;;;;;;5015969;28;20404;-84
2023/07/15 00:41:02;;;;;;;3.50;2.43;;;19.80;99.90;;;;;;5018742;28;20476;-84
2023/07/15 00:46:19;;;;;;;3.40;2.75;;;19.90;99.90;;;;;;5017529;28;20468;-83
2023/07/15 00:49:15;;;;;;;3.50;3.20;;;19.80;99.90;;;;;;5017212;28;20435;-85
2023/07/15 00:52:02;;;;;;;3.50;2.47;;;19.80;99.90;;;;;;5024437;28;20408;-83
2023/07/15 00:54:32;;;;;;;3.27;2.97;;;19.80;99.90;;;;;;5025333;28;20763;-83
2023/07/15 00:57:00;;;;;;;3.45;2.67;;;19.80;99.90;;;;;;5018221;28;20393;-83
2023/07/15 00:59:25;;;;;;;3.10;2.47;;;19.60;99.90;;;;;;5016503;28;20460;-84
2023/07/15 01:01:53;;;;;;;2.70;2.50;;;19.70;99.90;;;;;;5017067;28;20429;-83
2023/07/15 01:04:20;;;;;;;2.50;2.30;;;19.80;99.90;;;;;;5022997;28;20393;-83
2023/07/15 01:06:46;;;;;;;3.20;2.80;;;19.90;99.90;;;;;;5020695;28;20392;-83
2023/07/15 01:09:12;;;;;;;3.05;2.50;;;19.80;99.90;;;;;;5022073;28;20385;-83
2023/07/15 01:11:39;;;;;;;4.38;2.33;;;19.80;99.90;;;;;;5020508;28;20389;-83
2023/07/15 01:14:05;;;;;;;2.90;2.50;;;19.80;99.90;;;;;;5018977;28;20400;-83
2023/07/15 01:16:32;;;;;;;2.80;2.30;;;19.90;99.90;;;;;;5022170;28;20824;-83
2023/07/15 01:18:58;;;;;;;3.20;2.30;;;19.80;99.90;;;;;;5022247;28;20447;-83
2023/07/15 01:21:28;;;;;;;4.47;2.40;;;19.70;99.90;;;;;;5019070;28;20393;-84
2023/07/15 01:23:53;;;;;;;2.92;2.40;;;19.70;99.90;;;;;;5021597;28;20439;-84
2023/07/15 01:26:19;;;;;;;3.23;2.60;;;19.70;99.90;;;;;;5020845;28;20384;-84
2023/07/15 01:28:45;;;;;;;2.43;2.23;;;19.80;99.90;;;;;;5020060;28;20392;-84
2023/07/15 01:31:12;;;;;;;4.60;2.30;;;19.80;99.90;;;;;;5020437;28;20397;-83
2023/07/15 01:33:37;;;;;;;3.40;2.60;;;19.80;99.90;;;;;;5021807;28;20401;-83
2023/07/15 01:36:04;;;;;;;2.20;2.00;;;19.70;99.90;;;;;;5020648;28;20739;-83
2023/07/15 01:38:31;;;;;;;2.60;2.40;;;19.80;99.90;;;;;;5020289;28;20412;-84
2023/07/15 01:40:56;;;;;;;2.60;2.30;;;19.80;99.90;;;;;;5019825;28;20960;-83
2023/07/15 01:43:22;;;;;;;3.70;2.47;;;19.80;99.90;;;;;;5021894;28;20404;-83
2023/07/15 01:45:47;;;;;;;2.30;2.10;;;19.70;99.90;;;;;;5020804;28;20385;-83
2023/07/15 01:48:13;;;;;;;2.60;2.40;;;19.80;99.90;;;;;;5019655;28;20401;-83
2023/07/15 01:50:39;;;;;;;3.13;2.77;;;19.80;99.90;;;;;;5024813;28;20416;-83
2023/07/15 01:53:05;;;;;;;3.47;2.30;;;19.80;99.90;;;;;;5022087;28;20396;-84
2023/07/15 01:55:30;;;;;;;2.47;2.27;;;19.80;99.90;;;;;;5018916;28;20713;-83
2023/07/15 01:57:56;;;;;;;3.90;2.40;;;19.80;99.90;;;;;;5019313;28;20408;-83
2023/07/15 02:00:22;;;;;;;3.53;2.30;;;19.80;99.90;;;;;;5019224;28;20430;-83
2023/07/15 02:02:48;;;;;;;2.70;2.50;;;19.70;99.90;;;;;;5020759;28;20476;-82
2023/07/15 02:05:13;;;;;;;1.90;1.80;;;19.70;99.90;;;;;;5020662;28;20388;-83
2023/07/15 02:07:39;;;;;;;4.30;2.13;;;19.70;99.90;;;;;;5020620;28;20404;-83
2023/07/15 02:10:05;;;;;;;4.20;2.20;;;19.70;99.90;;;;;;5017920;28;20891;-83
2023/07/15 02:12:30;;;;;;;3.33;2.38;;;19.80;99.90;;;;;;5019109;28;20917;-83
2023/07/15 02:14:56;;;;;;;2.10;1.90;;;19.70;99.90;;;;;;5018722;28;20477;-82
2023/07/15 02:17:22;;;;;;;2.40;2.20;;;19.70;99.90;;;;;;5018173;28;20503;-84
2023/07/15 02:19:52;;;;;;;3.13;2.17;;;19.70;99.90;;;;;;5020252;28;20385;-83
2023/07/15 02:22:20;;;;;;;2.28;1.85;;;19.60;99.90;;;;;;5020028;28;20799;-83
2023/07/15 02:24:47;;;;;;;2.83;2.20;;;19.60;99.90;;;;;;5019508;28;20397;-82
2023/07/15 02:27:12;;;;;;;3.15;2.50;;;19.60;99.90;;;;;;5020651;28;20470;-83
2023/07/15 02:29:38;;;;;;;2.23;2.03;;;19.60;99.90;;;;;;5016406;28;20866;-83
2023/07/15 02:32:05;;;;;;;2.30;2.10;;;19.60;99.90;;;;;;5018217;28;20916;-83
2023/07/15 02:34:30;;;;;;;2.40;2.15;;;19.70;99.90;;;;;;5017631;28;20893;-82
2023/07/15 02:36:56;;;;;;;2.87;2.40;;;19.70;99.90;;;;;;5019705;28;20471;-83
2023/07/15 02:39:21;;;;;;;2.20;2.00;;;19.80;99.90;;;;;;5018290;28;20424;-83
2023/07/15 02:41:47;;;;;;;2.50;2.30;;;19.70;99.90;;;;;;5017581;28;20788;-83
2023/07/15 02:44:12;;;;;;;2.97;2.30;;;19.60;99.90;;;;;;5019470;28;20401;-83
2023/07/15 02:46:38;;;;;;;2.50;2.10;;;19.60;99.90;;;;;;5019877;28;20408;-83
2023/07/15 02:49:03;;;;;;;2.23;2.03;;;19.50;99.90;;;;;;5019453;28;20727;-83
2023/07/15 02:51:29;;;;;;;2.40;2.20;;;19.50;99.90;;;;;;5019623;28;20413;-83
2023/07/15 02:53:55;;;;;;;2.40;2.20;;;19.60;99.90;;;;;;5019778;28;20393;-83
2023/07/15 02:56:20;;;;;;;2.30;2.10;;;19.60;99.90;;;;;;5020559;28;20392;-83
2023/07/15 02:58:46;;;;;;;2.20;2.00;;;19.60;99.90;;;;;;5018505;28;20397;-83
2023/07/15 03:01:12;;;;;;;3.80;2.30;;;19.50;99.90;;;;;;5017983;28;20384;-83
2023/07/15 03:03:37;;;;;;;2.40;2.20;;;19.50;99.90;;;;;;5018425;28;20444;-83
2023/07/15 03:06:03;;;;;;;2.58;1.98;;;19.50;99.90;;;;;;5019249;28;20432;-83
2023/07/15 03:08:29;;;;;;;2.83;2.30;;;19.60;99.90;;;;;;5019357;28;20393;-83
2023/07/15 03:10:55;;;;;;;2.78;2.30;;;19.60;99.90;;;;;;5019643;28;20400;-83
2023/07/15 03:13:21;;;;;;;2.30;2.10;;;19.50;99.90;;;;;;5028637;28;20417;-83
2023/07/15 03:15:46;;;;;;;2.20;2.00;;;19.50;99.90;;;;;;5029857;28;20476;-82
2023/07/15 03:18:12;;;;;;;3.92;2.20;;;19.50;99.90;;;;;;5026995;28;20412;-82
2023/07/15 03:20:38;;;;;;;2.17;1.98;;;19.50;99.90;;;;;;5017357;28;20393;-83
2023/07/15 03:23:03;;;;;;;2.25;2.05;;;19.50;99.90;;;;;;5018360;28;20561;-83
2023/07/15 03:25:29;;;;;;;2.20;2.00;;;19.50;99.90;;;;;;5017382;28;20927;-83
2023/07/15 03:27:55;;;;;;;2.30;2.10;;;19.40;99.90;;;;;;5017075;28;20811;-83
2023/07/15 03:30:21;;;;;;;3.63;2.20;;;19.50;99.90;;;;;;5016444;28;20397;-84
2023/07/15 03:32:46;;;;;;;2.20;2.00;;;19.60;99.90;;;;;;5018080;28;20393;-83
2023/07/15 03:35:12;;;;;;;3.47;2.13;;;19.60;99.90;;;;;;5018774;28;20412;-83
2023/07/15 03:37:40;;;;;;;2.20;2.00;;;19.70;99.90;;;;;;5017842;28;20415;-83
2023/07/15 03:40:08;;;;;;;4.50;2.10;;;19.60;99.90;;;;;;5017564;28;20399;-83
2023/07/15 03:42:34;;;;;;;1.95;1.75;;;19.60;99.90;;;;;;5016769;28;20388;-83
2023/07/15 03:45:00;;;;;;;3.65;2.30;;;19.50;99.90;;;;;;5017281;28;20747;-83
2023/07/15 03:47:26;;;;;;;2.57;2.20;;;19.50;99.90;;;;;;5016229;28;20396;-83
2023/07/15 03:49:51;;;;;;;2.20;2.00;;;19.50;99.90;;;;;;5015605;28;20403;-83
2023/07/15 03:52:17;;;;;;;2.28;2.08;;;19.50;99.90;;;;;;5015588;28;20547;-84
2023/07/15 03:54:43;;;;;;;2.00;1.80;;;19.60;99.90;;;;;;5015926;28;20446;-83
2023/07/15 03:57:09;;;;;;;2.20;2.00;;;19.60;99.90;;;;;;5015352;28;20404;-84
2023/07/15 03:59:34;;;;;;;2.30;2.10;;;19.60;99.90;;;;;;5015581;28;20400;-83
2023/07/15 04:02:00;;;;;;;2.70;2.10;;;19.60;99.90;;;;;;5016906;28;20754;-84
2023/07/15 04:04:26;;;;;;;2.38;2.17;;;19.60;99.90;;;;;;5016729;28;20392;-83
2023/07/15 04:06:52;;;;;;;2.50;2.20;;;19.60;99.90;;;;;;5016227;28;20455;-83
2023/07/15 04:09:17;;;;;;;2.50;2.30;;;19.50;99.90;;;;;;5015224;28;20906;-83
2023/07/15 04:11:43;;;;;;;3.40;2.30;;;19.50;99.90;;;;;;5016092;28;20790;-83
2023/07/15 04:14:09;;;;;;;2.15;1.95;;;19.40;99.90;;;;;;5024190;28;20396;-84
2023/07/15 04:16:35;;;;;;;3.28;2.20;;;19.50;99.90;;;;;;5032389;28;20396;-83
2023/07/15 04:19:00;;;;;;;3.30;2.10;;;19.50;99.90;;;;;;5019538;28;20408;-83
2023/07/15 04:21:26;;;;;;;2.70;2.40;;;19.50;99.90;;;;;;5034658;28;20388;-84
2023/07/15 04:23:52;;;;;;;3.95;2.50;;;19.50;99.90;;;;;;5028346;28;20413;-83
2023/07/15 04:26:25;;;;;;;3.38;2.30;;;19.50;99.90;;;;;;5036191;28;20398;-84
2023/07/15 04:28:52;;;;;;;3.10;2.40;;;19.60;99.90;;;;;;5021700;28;20425;-84
2023/07/15 04:31:18;;;;;;;2.28;2.08;;;19.60;99.90;;;;;;5016376;28;20389;-84
2023/07/15 04:33:46;;;;;;;2.83;1.73;;;19.60;99.90;;;;;;5015909;28;20389;-84
2023/07/15 04:36:12;;;;;;;2.63;2.42;;;19.70;99.90;;;;;;5017591;28;20451;-83
2023/07/15 04:38:37;;;;;;;3.63;2.45;;;19.60;99.90;;;;;;5014723;28;20918;-84
2023/07/15 04:41:03;;;;;;;3.10;2.70;;;19.60;99.90;;;;;;5026614;28;20393;-83
2023/07/15 04:43:29;;;;;;;3.47;2.50;;;19.40;99.90;;;;;;5017848;28;20389;-83
2023/07/15 04:45:55;;;;;;;2.70;2.50;;;19.40;99.90;;;;;;5017822;28;20400;-84
2023/07/15 04:48:23;;;;;;;3.10;2.50;;;19.50;99.90;;;;;;5017923;28;20392;-83
2023/07/15 04:50:49;;;;;;;3.10;2.90;;;19.50;99.90;;;;;;5016871;28;20413;-83
2023/07/15 04:53:15;;;;;;;3.75;2.83;;;19.50;99.90;;;;;;5015864;28;20403;-83
2023/07/15 04:55:42;;;;;;;3.10;2.50;;;19.50;99.90;;;;;;5017509;28;20392;-83
2023/07/15 04:58:08;;;;;;;2.60;2.40;;;19.60;99.90;;;;;;5017277;28;20405;-83
2023/07/15 05:00:34;;;;;;;2.78;2.47;;;19.70;99.90;;;;;;5016776;28;20393;-83
2023/07/15 05:02:59;;;;;;;2.47;2.20;;;19.70;99.90;;;;;;5015761;28;20416;-83
2023/07/15 05:05:25;;;;;;;2.20;2.10;;;19.60;99.90;;;;;;5017885;28;20464;-83
2023/07/15 05:07:51;;;;;;;3.10;2.17;;;19.70;99.90;;;;;;5016477;28;20389;-83
2023/07/15 05:10:16;;;;;;;2.40;2.20;;;19.80;99.90;;;;;;5014700;28;20393;-83
2023/07/15 05:12:42;;;;;;;2.67;2.47;;;19.90;99.90;;;;;;5015307;28;20766;-83
2023/07/15 05:15:08;;;;;;;4.47;2.40;;;20.00;99.90;;;;;;5019704;28;21223;-83
2023/07/15 05:17:34;;;;;;;2.70;2.50;;;20.00;99.90;;;;;;5022928;28;20440;-83
2023/07/15 05:20:00;;;;;;;4.88;2.60;;;20.10;99.90;;;;;;5016223;28;20952;-83
2023/07/15 05:22:26;;;;;;;3.20;2.30;;;20.10;99.90;;;;;;5016265;28;20393;-83
2023/07/15 05:24:52;;;;;;;2.55;2.35;;;20.30;99.90;;;;;;5018582;28;20385;-83
2023/07/15 05:27:18;;;;;;;3.15;2.50;;;20.50;99.90;;;;;;5018534;28;20420;-83
2023/07/15 05:29:45;;;;;;;2.80;2.60;;;20.60;99.90;;;;;;5015685;28;20436;-83
2023/07/15 05:32:10;;;;;;;3.10;2.80;;;20.70;99.90;;;;;;5018366;28;20835;-84
2023/07/15 05:34:36;;;;;;;3.50;2.30;;;20.70;99.90;;;;;;5017461;28;20424;-84
2023/07/15 05:37:02;;;;;;;2.78;2.30;;;20.80;99.90;;;;;;5015958;28;20968;-84
2023/07/15 05:39:28;;;;;;;3.10;2.60;;;20.80;99.90;;;;;;5017525;28;20836;-84
2023/07/15 05:41:53;;;;;;;2.90;2.60;;;20.90;99.90;;;;;;5015139;28;20385;-84
2023/07/15 05:44:19;;;;;;;3.10;2.80;;;21.00;99.90;;;;;;5015940;28;20472;-84
2023/07/15 05:46:44;;;;;;;3.33;2.53;;;21.10;99.90;;;;;;5019959;28;20381;-84
2023/07/15 05:49:10;;;;;;;3.30;2.83;;;21.10;99.90;;;;;;5019400;28;20393;-84
2023/07/15 05:51:36;;;;;;;2.80;2.47;;;21.10;99.90;;;;;;5016246;28;20400;-83
2023/07/15 05:54:01;;;;;;;2.57;2.37;;;21.40;99.90;;;;;;5015547;28;20428;-84
2023/07/15 05:56:27;;;;;;;3.28;2.40;;;21.60;99.90;;;;;;5014582;28;20384;-84
2023/07/15 05:58:52;;;;;;;3.30;2.23;;;21.60;99.90;;;;;;5015763;28;20941;-84
2023/07/15 06:01:18;;;;;;;3.80;2.70;;;21.70;99.90;;;;;;5016799;28;20393;-84
2023/07/15 06:03:43;;;;;;;3.60;2.45;;;21.80;99.90;;;;;;5021207;28;20659;-84
2023/07/15 06:06:09;;;;;;;2.70;2.50;;;21.90;99.90;;;;;;5016072;28;20435;-84
2023/07/15 06:08:35;;;;;;;3.17;2.88;;;22.00;99.90;;;;;;5013140;28;20413;-84
2023/07/15 06:11:00;;;;;;;2.70;2.50;;;22.20;99.90;;;;;;5011092;28;20404;-85
2023/07/15 06:13:26;;;;;;;3.00;2.70;;;22.20;99.90;;;;;;5011574;28;20412;-84
2023/07/15 06:15:52;;;;;;;3.00;2.70;;;22.30;99.90;;;;;;5005714;28;20423;-84
2023/07/15 06:18:18;;;;;;;2.97;2.50;;;22.50;99.90;;;;;;5009065;28;20461;-85
2023/07/15 06:20:47;;;;;;;2.90;2.70;;;22.60;99.90;;;;;;5013778;28;20460;-85
2023/07/15 06:23:13;;;;;;;2.92;2.50;;;22.80;99.90;;;;;;5013110;28;20754;-85
2023/07/15 06:25:39;;;;;;;2.60;2.40;;;22.90;99.90;;;;;;5012680;28;20381;-84
2023/07/15 06:28:05;;;;;;;2.60;2.40;;;23.00;99.90;;;;;;5013111;28;20420;-84
2023/07/15 06:30:31;;;;;;;4.03;2.73;;;23.20;99.90;;;;;;5014702;28;20400;-84
2023/07/15 06:32:57;;;;;;;2.85;2.65;;;23.30;99.90;;;;;;5013802;28;20388;-85
2023/07/15 06:35:23;;;;;;;3.40;3.10;;;23.30;99.90;;;;;;5014997;28;20385;-84
2023/07/15 06:37:49;;;;;;;4.90;3.70;;;23.50;99.90;;;;;;5014553;28;20830;-83
2023/07/15 06:40:16;;;;;;;4.68;3.15;;;23.60;99.90;;;;;;5015281;28;20381;-85
2023/07/15 06:42:44;;;;;;;5.93;4.22;;;23.80;99.90;;;;;;5012033;28;21161;-84
2023/07/15 06:45:10;;;;;;;5.10;4.07;;;23.90;99.90;;;;;;5009377;28;20403;-84
2023/07/15 06:47:35;;;;;;;3.33;3.03;;;24.00;99.90;;;;;;5016283;28;20400;-85
2023/07/15 06:50:01;;;;;;;4.57;3.00;;;24.30;99.90;;;;;;5017100;28;20420;-84
2023/07/15 06:52:27;;;;;;;3.45;2.97;;;24.40;99.90;;;;;;5013764;28;20408;-84
2023/07/15 06:54:52;;;;;;;3.40;2.47;;;24.50;99.90;;;;;;5012841;28;20899;-84
2023/07/15 06:57:18;;;;;;;3.17;2.80;;;24.70;99.90;;;;;;5014654;28;20389;-84
2023/07/15 06:59:44;;;;;;;3.50;2.72;;;24.80;99.90;;;;;;5014214;28;20411;-85
2023/07/15 07:02:09;;;;;;;3.22;2.88;;;25.00;99.90;;;;;;5012138;28;20403;-84
2023/07/15 07:04:35;;;;;;;4.30;3.20;;;25.10;99.90;;;;;;5012467;28;20943;-84
2023/07/15 07:07:00;;;;;;;3.03;2.72;;;25.30;99.90;;;;;;5012484;28;20416;-84
2023/07/15 07:09:26;;;;;;;3.40;2.60;;;25.50;99.90;;;;;;5013012;28;20887;-84
2023/07/15 07:11:52;;;;;;;3.10;2.00;;;25.70;99.90;;;;;;5013014;28;20480;-83
2023/07/15 07:14:18;;;;;;;3.57;2.30;;;26.00;99.90;;;;;;5011962;28;20408;-84
2023/07/15 07:16:43;;;;;;;2.63;2.42;;;26.10;99.90;;;;;;5013172;28;20776;-84
2023/07/15 07:19:09;;;;;;;2.97;2.70;;;26.10;99.90;;;;;;5012053;28;20401;-84
2023/07/15 07:21:35;;;;;;;3.60;2.40;;;26.10;99.90;;;;;;5012190;28;20393;-84
2023/07/15 07:24:00;;;;;;;2.60;2.40;;;26.20;99.90;;;;;;5013028;28;20401;-84
2023/07/15 07:26:26;;;;;;;2.47;2.28;;;26.30;99.90;;;;;;5013793;28;20759;-84
2023/07/15 07:28:51;;;;;;;2.60;2.40;;;26.50;99.90;;;;;;5011570;28;20459;-84
2023/07/15 07:31:18;;;;;;;2.58;2.38;;;26.60;99.90;;;;;;5015428;28;20391;-84
2023/07/15 07:33:44;;;;;;;3.90;2.70;;;26.70;99.90;;;;;;5016319;28;20455;-82
2023/07/15 07:36:09;;;;;;;3.00;2.40;;;26.90;99.90;;;;;;5017042;28;20393;-83
2023/07/15 07:38:35;;;;;;;2.20;1.97;;;27.20;99.90;;;;;;5016592;28;20413;-81
2023/07/15 07:41:09;;;;;;;2.72;2.45;;;27.30;99.90;;;;;;5017844;28;20721;-83
2023/07/15 07:43:36;;;;;;;2.40;2.20;;;27.40;99.90;;;;;;5016010;28;20401;-82
2023/07/15 07:46:04;;;;;;;2.97;2.20;;;27.70;99.90;;;;;;5017110;28;20419;-83
2023/07/15 07:48:31;;;;;;;2.72;2.40;;;27.70;99.90;;;;;;5017902;28;20401;-82
2023/07/15 07:50:56;;;;;;;3.90;2.40;;;27.60;99.90;;;;;;5019325;28;20496;-83
2023/07/15 07:53:23;;;;;;;2.60;2.30;;;27.90;99.90;;;;;;5018499;28;20439;-83
2023/07/15 07:55:49;;;;;;;3.33;2.50;;;28.00;99.90;;;;;;5017236;28;20402;-83
2023/07/15 07:58:15;;;;;;;2.35;2.10;;;28.20;99.90;;;;;;5016960;28;20964;-84
2023/07/15 08:00:40;;;;;;;2.43;2.23;;;28.40;99.90;;;;;;5018589;28;20452;-86
2023/07/15 08:03:06;;;;;;;2.40;2.20;;;28.50;99.90;;;;;;5017596;28;20400;-84
2023/07/15 08:05:32;;;;;;;2.78;2.58;;;28.60;99.90;;;;;;5018049;28;20405;-83
2023/07/15 08:07:57;;;;;;;2.83;2.63;;;28.50;99.90;;;;;;5018488;28;20802;-85
2023/07/15 08:10:23;;;;;;;3.67;2.80;;;29.10;99.90;;;;;;5016883;28;20385;-84
2023/07/15 08:12:48;;;;;;;3.95;3.15;;;28.90;99.90;;;;;;5017359;28;20871;-84
2023/07/15 08:15:14;;;;;;;3.77;2.50;;;28.80;99.90;;;;;;5013220;28;20769;-83
2023/07/15 08:17:40;;;;;;;2.70;2.50;;;28.90;99.90;;;;;;5014569;28;20547;-83
2023/07/15 08:20:08;;;;;;;4.83;2.90;;;29.00;99.90;;;;;;5013072;28;20402;-85
2023/07/15 08:22:34;;;;;;;4.00;2.70;;;28.90;99.90;;;;;;5008751;28;20435;-86
2023/07/15 08:24:59;;;;;;;3.17;2.90;;;29.00;99.90;;;;;;5013347;28;20381;-86
2023/07/15 08:27:25;;;;;;;3.30;2.70;;;29.20;99.90;;;;;;5014058;28;20400;-85
2023/07/15 08:29:51;;;;;;;2.90;2.70;;;29.20;99.90;;;;;;5011982;28;20443;-86
2023/07/15 08:32:16;;;;;;;3.40;2.50;;;29.20;99.90;;;;;;5012332;28;20389;-84
2023/07/15 08:34:57;;;;;;;3.60;2.70;;;29.30;99.90;;;;;;5011351;28;20903;-86
2023/07/15 08:37:23;;;;;;;3.70;3.10;;;29.10;99.90;;;;;;5011329;28;20747;-86
2023/07/15 08:39:48;;;;;;;2.85;2.65;;;29.20;99.90;;;;;;5011200;28;20385;-85
2023/07/15 08:42:15;;;;;;;3.20;3.00;;;29.40;99.90;;;;;;5012570;28;20491;-85
2023/07/15 08:44:41;;;;;;;3.28;2.78;;;29.40;99.90;;;;;;5012837;28;20384;-85
2023/07/15 08:47:07;;;;;;;4.68;2.90;;;29.50;99.90;;;;;;5013848;28;20385;-88
2023/07/15 08:49:37;;;;;;;2.97;2.70;;;29.40;99.90;;;;;;5011603;28;20898;-87
2023/07/15 08:52:03;;;;;;;3.30;3.00;;;29.50;99.90;;;;;;5012673;28;20405;-85
2023/07/15 08:54:30;;;;;;;3.22;2.92;;;29.40;99.90;;;;;;5013703;28;21030;-87
2023/07/15 08:56:56;;;;;;;3.20;2.90;;;29.50;99.90;;;;;;5012030;28;20393;-86
2023/07/15 08:59:24;;;;;;;3.60;3.00;;;29.50;99.90;;;;;;5011995;28;20447;-88
2023/07/15 09:01:50;;;;;;;3.70;3.30;;;29.30;99.90;;;;;;5000528;28;20404;-86
2023/07/15 09:04:16;;;;;;;4.30;3.00;;;29.20;99.90;;;;;;5000905;28;20403;-86
2023/07/15 09:06:42;;;;;;;3.40;3.10;;;29.10;99.90;;;;;;5005540;28;20479;-87
2023/07/15 09:09:07;;;;;;;3.08;2.80;;;29.00;99.90;;;;;;5008079;28;20425;-85
2023/07/15 09:11:41;;;;;;;3.30;2.63;;;28.70;99.90;;;;;;5012346;28;20392;-85
2023/07/15 09:14:16;;;;;;;3.10;2.80;;;28.40;99.90;;;;;;5013034;28;20401;-85
2023/07/15 09:16:42;;;;;;;3.40;3.10;;;28.50;99.90;;;;;;5012062;28;20475;-86
2023/07/15 09:19:08;;;;;;;2.70;2.50;;;28.50;99.90;;;;;;5011414;28;20427;-87
2023/07/15 09:21:33;;;;;;;3.10;2.80;;;28.60;99.90;;;;;;5011767;28;20385;-86
2023/07/15 09:24:02;;;;;;;3.07;2.87;;;28.70;99.90;;;;;;5011437;28;20389;-87
2023/07/15 09:26:29;;;;;;;3.92;2.80;;;28.60;99.90;;;;;;5018846;28;20389;-86
2023/07/15 09:28:55;;;;;;;3.30;2.77;;;28.50;99.90;;;;;;5016126;28;20447;-88
2023/07/15 09:31:25;;;;;;;3.30;3.00;;;28.70;99.90;;;;;;5017644;28;20384;-85
2023/07/15 09:33:50;;;;;;;3.10;2.90;;;28.70;99.90;;;;;;5017942;28;20388;-85
2023/07/15 09:36:31;;;;;;;3.30;3.10;;;28.60;99.90;;;;;;5027247;28;20403;-85
2023/07/15 09:39:02;;;;;;;3.13;2.85;;;28.90;99.90;;;;;;5015676;28;20874;-86
2023/07/15 09:41:28;;;;;;;3.40;3.00;;;28.80;99.90;;;;;;5022821;28;20464;-87
2023/07/15 09:43:53;;;;;;;3.40;3.10;;;29.00;99.90;;;;;;5021454;28;20424;-87
2023/07/15 09:46:21;;;;;;;3.30;3.10;;;29.00;99.90;;;;;;5015099;28;20392;-86
2023/07/15 09:48:48;;;;;;;3.00;2.80;;;29.20;99.90;;;;;;5014610;28;20955;-88
2023/07/15 09:51:15;;;;;;;3.25;3.03;;;29.50;99.90;;;;;;5013472;28;20432;-88
2023/07/15 09:53:49;;;;;;;3.25;2.60;;;29.70;99.90;;;;;;5016895;28;20405;-85
2023/07/15 09:56:21;;;;;;;3.33;2.83;;;29.40;99.90;;;;;;5015469;28;20439;-87
2023/07/15 09:58:49;;;;;;;3.15;2.85;;;29.60;99.90;;;;;;5016807;28;20773;-86
2023/07/15 10:01:25;;;;;;;6.15;3.15;;;29.60;99.90;;;;;;5013407;28;20388;-86
2023/07/15 10:04:08;;;;;;;3.30;3.00;;;29.30;99.90;;;;;;5014367;28;20739;-88
2023/07/15 10:06:34;;;;;;;4.60;3.23;;;28.90;99.90;;;;;;5013090;28;20393;-90
2023/07/15 10:09:01;;;;;;;3.58;2.90;;;28.90;99.90;;;;;;5013239;28;20385;-90
2023/07/15 10:11:27;;;;;;;3.20;2.90;;;28.60;99.90;;;;;;5013212;28;20392;-90
2023/07/15 10:13:53;;;;;;;3.45;3.15;;;28.80;99.90;;;;;;5013339;28;20755;-89
2023/07/15 10:16:19;;;;;;;3.80;2.70;;;28.70;99.90;;;;;;5012782;28;20466;-89
2023/07/15 10:18:46;;;;;;;3.20;2.90;;;28.70;99.90;;;;;;5013647;28;20407;-89
2023/07/15 10:21:14;;;;;;;3.60;2.90;;;28.40;99.90;;;;;;5013580;28;20389;-88
2023/07/15 10:23:40;;;;;;;3.30;3.00;;;28.30;99.90;;;;;;5013768;28;20385;-91
2023/07/15 10:26:08;;;;;;;3.20;2.90;;;28.30;99.90;;;;;;5013484;28;20395;-88
2023/07/15 10:28:35;;;;;;;2.90;2.70;;;28.50;99.90;;;;;;5012605;28;20762;-89
2023/07/15 10:31:18;;;;;;;3.55;2.85;;;28.60;99.90;;;;;;5014636;28;20389;-91
2023/07/15 10:34:01;;;;;;;3.63;2.80;;;28.70;99.90;;;;;;5009642;28;20934;-91
2023/07/15 10:36:44;;;;;;;3.20;2.90;;;28.50;99.90;;;;;;5012107;28;20447;-87
2023/07/15 10:39:16;;;;;;;3.03;2.72;;;28.70;99.90;;;;;;5008441;28;20412;-86
2023/07/15 10:41:52;;;;;;;3.30;2.83;;;28.90;99.90;;;;;;5018585;28;20412;-91
2023/07/15 10:44:25;;;;;;;2.80;2.60;;;28.80;99.90;;;;;;5013737;28;20388;-90
2023/07/15 10:46:52;;;;;;;3.00;2.70;;;28.80;99.90;;;;;;5008561;28;20400;-88
2023/07/15 10:49:18;;;;;;;2.80;2.60;;;28.80;99.90;;;;;;5011041;28;20871;-89
2023/07/15 10:51:44;;;;;;;2.80;2.60;;;28.90;99.90;;;;;;5008818;28;20420;-87
2023/07/15 10:54:09;;;;;;;2.90;2.60;;;28.80;99.90;;;;;;5013323;28;20400;-88
2023/07/15 10:56:35;;;;;;;3.00;2.70;;;28.50;99.90;;;;;;5012208;28;20380;-88
2023/07/15 10:59:01;;;;;;;3.67;2.95;;;28.60;99.90;;;;;;5012040;28;20535;-88
2023/07/15 11:01:26;;;;;;;2.97;2.77;;;28.70;99.90;;;;;;5012040;28;20807;-88
2023/07/15 11:03:52;;;;;;;3.47;2.72;;;28.70;99.90;;;;;;5011894;28;20385;-89
2023/07/15 11:06:18;;;;;;;3.10;2.80;;;28.90;99.90;;;;;;5013134;28;20392;-91
2023/07/15 11:08:44;;;;;;;3.60;2.90;;;28.90;99.90;;;;;;5012151;28;20438;-88
2023/07/15 11:11:10;;;;;;;4.40;2.90;;;29.00;99.90;;;;;;5012458;28;20389;-89
2023/07/15 11:13:37;;;;;;;3.65;2.90;;;29.10;99.90;;;;;;5011625;28;20981;-88
2023/07/15 11:16:03;;;;;;;4.30;3.10;;;29.00;99.90;;;;;;5013111;28;20829;-88
2023/07/15 11:18:30;;;;;;;4.00;3.08;;;29.20;99.90;;;;;;5020948;28;20408;-92
2023/07/15 11:21:00;;;;;;;3.30;2.70;;;29.30;99.90;;;;;;5022418;28;20460;-89
2023/07/15 11:23:30;;;;;;;6.05;3.10;;;29.40;99.90;;;;;;5009763;28;20415;-88
2023/07/15 11:25:59;;;;;;;3.40;2.60;;;29.70;99.90;;;;;;5022076;28;20379;-87
2023/07/15 11:28:26;;;;;;;5.33;2.90;;;29.80;99.90;;;;;;5010005;28;20440;-89
2023/07/15 11:30:51;;;;;;;4.40;2.90;;;29.80;99.90;;;;;;5010987;28;20396;-88
2023/07/15 11:33:17;;;;;;;3.80;2.97;;;30.10;99.90;;;;;;5011430;28;20403;-89
2023/07/15 11:35:44;;;;;;;4.10;2.70;;;30.10;99.90;;;;;;5009355;28;20401;-89
2023/07/15 11:38:14;;;;;;;3.20;2.90;;;30.10;99.90;;;;;;5004774;28;20488;-89
2023/07/15 11:40:54;;;;;;;3.65;3.15;;;30.00;99.90;;;;;;5007561;28;20953;-89
2023/07/15 11:43:21;;;;;;;3.10;2.90;;;30.50;99.90;;;;;;5011016;28;20384;-89
2023/07/15 11:45:47;;;;;;;4.00;3.40;;;31.00;99.90;;;;;;5011117;28;20396;-90
2023/07/15 11:48:21;;;;;;;3.20;2.90;;;30.60;99.90;;;;;;5011813;28;20863;-90
2023/07/15 11:50:47;;;;;;;3.70;2.80;;;32.10;99.90;;;;;;5010742;28;20409;-89
2023/07/15 11:53:29;;;;;;;3.30;3.00;;;32.70;99.90;;;;;;5011305;28;20401;-89
2023/07/15 11:55:55;;;;;;;3.60;3.30;;;32.80;99.90;;;;;;5010724;28;20890;-89
2023/07/15 11:58:39;;;;;;;3.40;3.10;;;33.30;99.90;;;;;;5009572;28;20691;-87
2023/07/15 12:01:06;;;;;;;3.20;2.60;;;33.30;1.00;;;;;;5011640;28;20393;-87
2023/07/15 12:03:32;;;;;;;3.73;2.70;;;33.00;1.00;;;;;;5017229;28;20388;-88
2023/07/15 12:05:58;;;;;;;3.60;2.80;;;33.90;1.00;;;;;;5021395;28;20417;-83
2023/07/15 12:08:24;;;;;;;3.90;2.80;;;33.40;1.00;;;;;;5021720;28;20408;-85
2023/07/15 12:11:01;;;;;;;3.33;2.80;;;33.60;1.00;;;;;;5012645;28;20393;-86
2023/07/15 12:13:27;;;;;;;3.57;2.60;;;33.90;1.00;;;;;;5010134;28;20501;-88
2023/07/15 12:15:53;;;;;;;4.13;2.80;;;33.70;1.00;;;;;;5003765;28;20789;-89
2023/07/15 12:18:18;;;;;;;3.77;3.07;;;33.60;1.00;;;;;;5008977;28;20405;-87
2023/07/15 12:20:44;;;;;;;4.28;3.25;;;33.40;1.00;;;;;;5009659;28;20779;-89
2023/07/15 12:23:09;;;;;;;3.20;2.90;;;33.00;1.00;;;;;;5009325;28;20437;-88
2023/07/15 12:25:35;;;;;;;3.20;2.90;;;33.00;1.00;;;;;;5011538;28;20428;-89
2023/07/15 12:28:00;;;;;;;3.50;3.00;;;32.70;1.00;;;;;;5011880;28;20381;-88
2023/07/15 12:30:26;;;;;;;4.18;3.28;;;32.90;1.00;;;;;;5009288;28;20467;-89
2023/07/15 12:32:51;;;;;;;4.97;3.28;;;32.70;1.00;;;;;;5011281;28;20488;-87
2023/07/15 12:35:17;;;;;;;4.93;3.23;;;32.90;1.00;;;;;;5010399;28;20436;-89
2023/07/15 12:37:42;;;;;;;3.50;3.20;;;33.20;1.00;;;;;;5010389;28;20440;-89
2023/07/15 12:40:08;;;;;;;3.83;3.13;;;33.20;1.00;;;;;;5009328;28;20778;-88
2023/07/15 12:42:35;;;;;;;6.60;3.30;;;33.90;1.00;;;;;;5007684;28;20977;-89
2023/07/15 12:45:01;;;;;;;3.30;3.00;;;33.60;1.00;;;;;;5010848;28;20472;-90
2023/07/15 12:47:27;;;;;;;3.80;3.38;;;33.60;1.00;;;;;;5010610;28;20392;-88
2023/07/15 12:49:52;;;;;;;3.20;2.70;;;34.40;1.00;;;;;;5010367;28;20520;-87